sensor_id;sensor_type;location;lat;lon;timestamp;pressure;altitude;pressure_sealevel;temperature;humidity
21980;BME280;11154;48.558;9.234;2022-08-19T00:01:40;97094.84;;;22.19;100.00
21980;BME280;11154;48.558;9.234;2022-08-19T00:03:42;97092.38;;;22.17;100.00
21980;BME280;11154;48.558;9.234;2022-08-19T00:05:43;97103.47;;;22.16;100.00
21980;BME280;11154;48.558;9.234;2022-08-19T00:07:47;97099.91;;;22.15;100.00
21980;BME280;11154;48.558;9.234;2022-08-19T00:09:49;97099.13;;;22.15;100.00
21980;BME280;11154;48.558;9.234;2022-08-19T00:11:51;97104.53;;;22.15;100.00
21980;BME280;11154;48.558;9.234;2022-08-19T00:13:54;97096.31;;;22.10;100.00
21980;BME280;11154;48.558;9.234;2022-08-19T00:15:56;97102.22;;;22.07;100.00
21980;BME280;11154;48.558;9.234;2022-08-19T00:17:58;97103.28;;;22.06;100.00
21980;BME280;11154;48.558;9.234;2022-08-19T00:20:00;97092.69;;;22.04;100.00
21980;BME280;11154;48.558;9.234;2022-08-19T00:22:02;97092.34;;;22.01;100.00
21980;BME280;11154;48.558;9.234;2022-08-19T00:24:06;97089.91;;;21.99;100.00
21980;BME280;11154;48.558;9.234;2022-08-19T00:26:09;97086.94;;;22.01;100.00
21980;BME280;11154;48.558;9.234;2022-08-19T00:28:10;97078.13;;;21.94;100.00
21980;BME280;11154;48.558;9.234;2022-08-19T00:30:13;97078.63;;;21.91;100.00
21980;BME280;11154;48.558;9.234;2022-08-19T00:32:14;97061.81;;;21.89;100.00
21980;BME280;11154;48.558;9.234;2022-08-19T00:34:16;97065.09;;;21.91;100.00
21980;BME280;11154;48.558;9.234;2022-08-19T00:36:18;97069.13;;;21.88;100.00
21980;BME280;11154;48.558;9.234;2022-08-19T00:38:20;97074.75;;;21.87;100.00
21980;BME280;11154;48.558;9.234;2022-08-19T00:40:25;97079.44;;;21.91;100.00
21980;BME280;11154;48.558;9.234;2022-08-19T00:42:26;97081.09;;;21.92;100.00
21980;BME280;11154;48.558;9.234;2022-08-19T00:44:29;97082.16;;;21.91;100.00
21980;BME280;11154;48.558;9.234;2022-08-19T00:46:33;97092.19;;;21.91;100.00
21980;BME280;11154;48.558;9.234;2022-08-19T00:48:36;97092.91;;;21.86;100.00
21980;BME280;11154;48.558;9.234;2022-08-19T00:50:39;97091.00;;;21.87;100.00
21980;BME280;11154;48.558;9.234;2022-08-19T00:52:45;97094.78;;;21.86;100.00
21980;BME280;11154;48.558;9.234;2022-08-19T00:54:48;97093.88;;;21.80;100.00
21980;BME280;11154;48.558;9.234;2022-08-19T00:56:53;97086.47;;;21.76;100.00
21980;BME280;11154;48.558;9.234;2022-08-19T00:58:56;97085.88;;;21.74;100.00
21980;BME280;11154;48.558;9.234;2022-08-19T01:00:59;97090.34;;;21.80;100.00
21980;BME280;11154;48.558;9.234;2022-08-19T01:03:02;97090.91;;;21.82;100.00
21980;BME280;11154;48.558;9.234;2022-08-19T01:05:07;97088.19;;;21.82;100.00
21980;BME280;11154;48.558;9.234;2022-08-19T01:07:10;97083.50;;;21.77;100.00
21980;BME280;11154;48.558;9.234;2022-08-19T01:09:11;97079.41;;;21.75;100.00
21980;BME280;11154;48.558;9.234;2022-08-19T01:11:13;97078.09;;;21.77;100.00
21980;BME280;11154;48.558;9.234;2022-08-19T01:13:19;97079.53;;;21.80;100.00
21980;BME280;11154;48.558;9.234;2022-08-19T01:15:24;97074.81;;;21.76;100.00
21980;BME280;11154;48.558;9.234;2022-08-19T01:17:27;97080.72;;;21.73;100.00
21980;BME280;11154;48.558;9.234;2022-08-19T01:19:33;97073.44;;;21.73;100.00
21980;BME280;11154;48.558;9.234;2022-08-19T01:21:40;97071.78;;;21.72;100.00
21980;BME280;11154;48.558;9.234;2022-08-19T01:23:44;97071.78;;;21.72;100.00
21980;BME280;11154;48.558;9.234;2022-08-19T01:25:48;97072.03;;;21.71;100.00
21980;BME280;11154;48.558;9.234;2022-08-19T01:27:51;97072.03;;;21.71;100.00
21980;BME280;11154;48.558;9.234;2022-08-19T01:29:53;97079.31;;;21.70;100.00
21980;BME280;11154;48.558;9.234;2022-08-19T01:31:55;97070.13;;;21.71;100.00
21980;BME280;11154;48.558;9.234;2022-08-19T01:33:57;97062.47;;;21.68;100.00
21980;BME280;11154;48.558;9.234;2022-08-19T01:36:12;97077.66;;;21.69;100.00
21980;BME280;11154;48.558;9.234;2022-08-19T01:38:21;97076.00;;;21.68;100.00
21980;BME280;11154;48.558;9.234;2022-08-19T01:40:28;97066.03;;;21.69;100.00
21980;BME280;11154;48.558;9.234;2022-08-19T01:42:31;97074.16;;;21.69;100.00
21980;BME280;11154;48.558;9.234;2022-08-19T01:44:33;97079.56;;;21.69;100.00
21980;BME280;11154;48.558;9.234;2022-08-19T01:46:36;97076.00;;;21.68;100.00
21980;BME280;11154;48.558;9.234;2022-08-19T01:48:41;97077.31;;;21.66;100.00
21980;BME280;11154;48.558;9.234;2022-08-19T01:50:44;97077.31;;;21.66;100.00
21980;BME280;11154;48.558;9.234;2022-08-19T01:52:46;97079.81;;;21.67;100.00
21980;BME280;11154;48.558;9.234;2022-08-19T01:54:47;97078.97;;;21.67;100.00
21980;BME280;11154;48.558;9.234;2022-08-19T01:56:51;97070.03;;;21.66;100.00
21980;BME280;11154;48.558;9.234;2022-08-19T01:58:57;97062.72;;;21.67;100.00
21980;BME280;11154;48.558;9.234;2022-08-19T02:00:59;97068.38;;;21.65;100.00
21980;BME280;11154;48.558;9.234;2022-08-19T02:03:01;97070.59;;;21.68;100.00
21980;BME280;11154;48.558;9.234;2022-08-19T02:05:03;97072.75;;;21.66;100.00
21980;BME280;11154;48.558;9.234;2022-08-19T02:07:06;97063.78;;;21.66;100.00
21980;BME280;11154;48.558;9.234;2022-08-19T02:09:09;97066.28;;;21.67;100.00
21980;BME280;11154;48.558;9.234;2022-08-19T02:11:18;97063.78;;;21.66;100.00
21980;BME280;11154;48.558;9.234;2022-08-19T02:13:22;97071.09;;;21.65;100.00
21980;BME280;11154;48.558;9.234;2022-08-19T02:15:24;97072.75;;;21.66;100.00
21980;BME280;11154;48.558;9.234;2022-08-19T02:17:27;97076.50;;;21.65;100.00
21980;BME280;11154;48.558;9.234;2022-08-19T02:19:29;97076.41;;;21.60;100.00
21980;BME280;11154;48.558;9.234;2022-08-19T02:21:32;97081.34;;;21.63;100.00
21980;BME280;11154;48.558;9.234;2022-08-19T02:23:34;97084.28;;;21.62;100.00
21980;BME280;11154;48.558;9.234;2022-08-19T02:25:37;97071.81;;;21.61;100.00
21980;BME280;11154;48.558;9.234;2022-08-19T02:27:39;97074.78;;;21.59;100.00
21980;BME280;11154;48.558;9.234;2022-08-19T02:29:43;97059.38;;;21.48;100.00
21980;BME280;11154;48.558;9.234;2022-08-19T02:31:44;97053.53;;;21.28;100.00
21980;BME280;11154;48.558;9.234;2022-08-19T02:33:46;97052.97;;;21.15;100.00
21980;BME280;11154;48.558;9.234;2022-08-19T02:35:48;97054.75;;;21.09;100.00
21980;BME280;11154;48.558;9.234;2022-08-19T02:37:50;97051.47;;;21.07;100.00
21980;BME280;11154;48.558;9.234;2022-08-19T02:40:10;97049.97;;;21.00;100.00
21980;BME280;11154;48.558;9.234;2022-08-19T02:42:12;97047.00;;;21.02;100.00
21980;BME280;11154;48.558;9.234;2022-08-19T02:44:14;97041.38;;;20.92;100.00
21980;BME280;11154;48.558;9.234;2022-08-19T02:46:19;97045.97;;;20.91;100.00
21980;BME280;11154;48.558;9.234;2022-08-19T02:48:23;97042.31;;;20.86;100.00
21980;BME280;11154;48.558;9.234;2022-08-19T02:50:26;97051.38;;;20.91;100.00
21980;BME280;11154;48.558;9.234;2022-08-19T02:52:27;97047.72;;;20.86;100.00
21980;BME280;11154;48.558;9.234;2022-08-19T02:54:29;97040.69;;;20.85;100.00
21980;BME280;11154;48.558;9.234;2022-08-19T02:56:31;97048.81;;;20.85;100.00
21980;BME280;11154;48.558;9.234;2022-08-19T02:58:35;97055.72;;;20.81;100.00
21980;BME280;11154;48.558;9.234;2022-08-19T03:00:41;97058.53;;;20.74;100.00
21980;BME280;11154;48.558;9.234;2022-08-19T03:02:45;97064.03;;;20.68;100.00
21980;BME280;11154;48.558;9.234;2022-08-19T03:04:47;97061.69;;;20.71;100.00
21980;BME280;11154;48.558;9.234;2022-08-19T03:06:48;97065.44;;;20.70;100.00
21980;BME280;11154;48.558;9.234;2022-08-19T03:08:50;97066.28;;;20.71;100.00
21980;BME280;11154;48.558;9.234;2022-08-19T03:10:52;97068.03;;;20.65;100.00
21980;BME280;11154;48.558;9.234;2022-08-19T03:12:54;97067.69;;;20.62;100.00
21980;BME280;11154;48.558;9.234;2022-08-19T03:14:55;97061.13;;;20.58;100.00
21980;BME280;11154;48.558;9.234;2022-08-19T03:16:57;97064.41;;;20.48;100.00
21980;BME280;11154;48.558;9.234;2022-08-19T03:19:01;97062.06;;;20.52;100.00
21980;BME280;11154;48.558;9.234;2022-08-19T03:21:04;97060.75;;;20.54;100.00
21980;BME280;11154;48.558;9.234;2022-08-19T03:23:06;97059.91;;;20.54;100.00
21980;BME280;11154;48.558;9.234;2022-08-19T03:25:08;97053.22;;;20.56;100.00
21980;BME280;11154;48.558;9.234;2022-08-19T03:27:10;97063.34;;;20.61;100.00
21980;BME280;11154;48.558;9.234;2022-08-19T03:29:12;97061.69;;;20.60;100.00
21980;BME280;11154;48.558;9.234;2022-08-19T03:31:15;97070.28;;;20.68;100.00
21980;BME280;11154;48.558;9.234;2022-08-19T03:33:17;97069.69;;;20.66;100.00
21980;BME280;11154;48.558;9.234;2022-08-19T03:35:20;97063.47;;;20.66;100.00
21980;BME280;11154;48.558;9.234;2022-08-19T03:37:22;97068.28;;;20.64;100.00
21980;BME280;11154;48.558;9.234;2022-08-19T03:39:24;97069.09;;;20.64;100.00
21980;BME280;11154;48.558;9.234;2022-08-19T03:41:28;97061.13;;;20.58;100.00
21980;BME280;11154;48.558;9.234;2022-08-19T03:43:30;97063.34;;;20.61;100.00
21980;BME280;11154;48.558;9.234;2022-08-19T03:45:32;97067.34;;;20.58;100.00
21980;BME280;11154;48.558;9.234;2022-08-19T03:47:34;97069.91;;;20.53;100.00
21980;BME280;11154;48.558;9.234;2022-08-19T03:49:35;97069.56;;;20.50;100.00
21980;BME280;11154;48.558;9.234;2022-08-19T03:51:39;97061.56;;;20.55;100.00
21980;BME280;11154;48.558;9.234;2022-08-19T03:53:40;97077.31;;;20.58;100.00
21980;BME280;11154;48.558;9.234;2022-08-19T03:55:42;97074.84;;;20.56;100.00
21980;BME280;11154;48.558;9.234;2022-08-19T03:57:44;97076.38;;;20.64;100.00
21980;BME280;11154;48.558;9.234;2022-08-19T03:59:48;97073.09;;;20.62;100.00
21980;BME280;11154;48.558;9.234;2022-08-19T04:01:50;97075.44;;;20.58;100.00
21980;BME280;11154;48.558;9.234;2022-08-19T04:03:53;97068.97;;;20.59;100.00
21980;BME280;11154;48.558;9.234;2022-08-19T04:05:55;97072.28;;;20.61;100.00
21980;BME280;11154;48.558;9.234;2022-08-19T04:07:58;97070.28;;;20.57;100.00
21980;BME280;11154;48.558;9.234;2022-08-19T04:10:00;97069.31;;;20.51;100.00
21980;BME280;11154;48.558;9.234;2022-08-19T04:12:04;97072.03;;;20.51;100.00
21980;BME280;11154;48.558;9.234;2022-08-19T04:14:07;97069.56;;;20.50;100.00
21980;BME280;11154;48.558;9.234;2022-08-19T04:16:10;97071.09;;;20.46;100.00
21980;BME280;11154;48.558;9.234;2022-08-19T04:18:12;97074.38;;;20.48;100.00
21980;BME280;11154;48.558;9.234;2022-08-19T04:20:14;97073.91;;;20.51;100.00
21980;BME280;11154;48.558;9.234;2022-08-19T04:22:16;97066.75;;;20.45;100.00
21980;BME280;11154;48.558;9.234;2022-08-19T04:24:20;97063.44;;;20.43;100.00
21980;BME280;11154;48.558;9.234;2022-08-19T04:26:26;97062.16;;;20.45;100.00
21980;BME280;11154;48.558;9.234;2022-08-19T04:28:29;97054.28;;;20.44;100.00
21980;BME280;11154;48.558;9.234;2022-08-19T04:30:30;97062.63;;;20.42;100.00
21980;BME280;11154;48.558;9.234;2022-08-19T04:32:32;97064.75;;;20.40;100.00
21980;BME280;11154;48.558;9.234;2022-08-19T04:34:36;97061.59;;;20.43;100.00
21980;BME280;11154;48.558;9.234;2022-08-19T04:36:40;97061.34;;;20.45;100.00
21980;BME280;11154;48.558;9.234;2022-08-19T04:38:42;97064.63;;;20.47;100.00
21980;BME280;11154;48.558;9.234;2022-08-19T04:40:47;97065.69;;;20.46;100.00
21980;BME280;11154;48.558;9.234;2022-08-19T04:43:07;97066.25;;;20.48;100.00
21980;BME280;11154;48.558;9.234;2022-08-19T04:45:11;97062.16;;;20.45;100.00
21980;BME280;11154;48.558;9.234;2022-08-19T04:47:14;97062.41;;;20.44;100.00
21980;BME280;11154;48.558;9.234;2022-08-19T04:49:17;97068.41;;;20.46;100.00
21980;BME280;11154;48.558;9.234;2022-08-19T04:51:20;97066.75;;;20.45;100.00
21980;BME280;11154;48.558;9.234;2022-08-19T04:53:22;97081.31;;;20.44;100.00
21980;BME280;11154;48.558;9.234;2022-08-19T04:55:23;97081.06;;;20.45;100.00
21980;BME280;11154;48.558;9.234;2022-08-19T04:57:28;97085.66;;;20.45;100.00
21980;BME280;11154;48.558;9.234;2022-08-19T04:59:29;97087.16;;;20.41;100.00
21980;BME280;11154;48.558;9.234;2022-08-19T05:01:33;97091.63;;;20.47;100.00
21980;BME280;11154;48.558;9.234;2022-08-19T05:03:36;97097.88;;;20.47;100.00
21980;BME280;11154;48.558;9.234;2022-08-19T05:05:39;97110.53;;;20.47;100.00
21980;BME280;11154;48.558;9.234;2022-08-19T05:07:41;97108.91;;;20.46;100.00
21980;BME280;11154;48.558;9.234;2022-08-19T05:09:43;97113.97;;;20.42;100.00
21980;BME280;11154;48.558;9.234;2022-08-19T05:11:45;97111.84;;;20.44;100.00
21980;BME280;11154;48.558;9.234;2022-08-19T05:13:48;97115.00;;;20.41;100.00
21980;BME280;11154;48.558;9.234;2022-08-19T05:15:54;97127.69;;;20.41;100.00
21980;BME280;11154;48.558;9.234;2022-08-19T05:17:56;97132.38;;;20.45;100.00
21980;BME280;11154;48.558;9.234;2022-08-19T05:20:15;97139.22;;;20.48;100.00
21980;BME280;11154;48.558;9.234;2022-08-19T05:22:34;97138.75;;;20.51;100.00
21980;BME280;11154;48.558;9.234;2022-08-19T05:24:37;97159.69;;;20.55;100.00
21980;BME280;11154;48.558;9.234;2022-08-19T05:26:40;97160.50;;;20.56;100.00
21980;BME280;11154;48.558;9.234;2022-08-19T05:28:42;97157.19;;;20.54;100.00
21980;BME280;11154;48.558;9.234;2022-08-19T05:30:45;97161.31;;;20.56;100.00
21980;BME280;11154;48.558;9.234;2022-08-19T05:32:48;97165.91;;;20.56;100.00
21980;BME280;11154;48.558;9.234;2022-08-19T05:34:50;97161.53;;;20.55;100.00
21980;BME280;11154;48.558;9.234;2022-08-19T05:36:53;97157.66;;;20.51;100.00
21980;BME280;11154;48.558;9.234;2022-08-19T05:38:57;97158.13;;;20.48;100.00
21980;BME280;11154;48.558;9.234;2022-08-19T05:40:58;97162.84;;;20.52;100.00
21980;BME280;11154;48.558;9.234;2022-08-19T05:43:00;97160.97;;;20.53;100.00
21980;BME280;11154;48.558;9.234;2022-08-19T05:45:03;97163.06;;;20.51;100.00
21980;BME280;11154;48.558;9.234;2022-08-19T05:47:07;97168.47;;;20.51;100.00
21980;BME280;11154;48.558;9.234;2022-08-19T05:49:09;97160.63;;;20.49;100.00
21980;BME280;11154;48.558;9.234;2022-08-19T05:51:11;97159.16;;;20.47;100.00
21980;BME280;11154;48.558;9.234;2022-08-19T05:53:13;97161.88;;;20.47;100.00
21980;BME280;11154;48.558;9.234;2022-08-19T05:55:16;97163.53;;;20.48;100.00
21980;BME280;11154;48.558;9.234;2022-08-19T05:57:20;97163.75;;;20.46;100.00
21980;BME280;11154;48.558;9.234;2022-08-19T05:59:22;97163.06;;;20.51;100.00
21980;BME280;11154;48.558;9.234;2022-08-19T06:01:25;97162.03;;;20.52;100.00
21980;BME280;11154;48.558;9.234;2022-08-19T06:03:28;97159.31;;;20.52;100.00
21980;BME280;11154;48.558;9.234;2022-08-19T06:05:30;97177.19;;;20.53;100.00
21980;BME280;11154;48.558;9.234;2022-08-19T06:07:32;97168.84;;;20.54;100.00
21980;BME280;11154;48.558;9.234;2022-08-19T06:09:34;97174.59;;;20.58;100.00
21980;BME280;11154;48.558;9.234;2022-08-19T06:11:39;97171.66;;;20.59;100.00
21980;BME280;11154;48.558;9.234;2022-08-19T06:13:45;97175.31;;;20.65;100.00
21980;BME280;11154;48.558;9.234;2022-08-19T06:15:51;97171.56;;;20.66;100.00
21980;BME280;11154;48.558;9.234;2022-08-19T06:17:52;97170.38;;;20.62;100.00
21980;BME280;11154;48.558;9.234;2022-08-19T06:19:56;97174.03;;;20.67;100.00
21980;BME280;11154;48.558;9.234;2022-08-19T06:21:59;97175.88;;;20.67;100.00
21980;BME280;11154;48.558;9.234;2022-08-19T06:24:01;97171.34;;;20.67;100.00
21980;BME280;11154;48.558;9.234;2022-08-19T06:26:03;97169.91;;;20.65;100.00
21980;BME280;11154;48.558;9.234;2022-08-19T06:28:05;97169.56;;;20.61;100.00
21980;BME280;11154;48.558;9.234;2022-08-19T06:30:08;97169.31;;;20.63;100.00
21980;BME280;11154;48.558;9.234;2022-08-19T06:32:10;97174.13;;;20.61;100.00
21980;BME280;11154;48.558;9.234;2022-08-19T06:34:12;97168.97;;;20.59;100.00
21980;BME280;11154;48.558;9.234;2022-08-19T06:36:19;97166.84;;;20.61;100.00
21980;BME280;11154;48.558;9.234;2022-08-19T06:38:22;97172.47;;;20.60;100.00
21980;BME280;11154;48.558;9.234;2022-08-19T06:40:23;97165.44;;;20.59;100.00
21980;BME280;11154;48.558;9.234;2022-08-19T06:42:27;97168.16;;;20.59;100.00
21980;BME280;11154;48.558;9.234;2022-08-19T06:44:30;97178.34;;;20.57;100.00
21980;BME280;11154;48.558;9.234;2022-08-19T06:46:35;97182.91;;;20.56;100.00
21980;BME280;11154;48.558;9.234;2022-08-19T06:48:37;97179.66;;;20.54;100.00
21980;BME280;11154;48.558;9.234;2022-08-19T06:50:39;97170.84;;;20.59;100.00
21980;BME280;11154;48.558;9.234;2022-08-19T06:52:42;97182.09;;;20.56;100.00
21980;BME280;11154;48.558;9.234;2022-08-19T06:54:43;97177.75;;;20.55;100.00
21980;BME280;11154;48.558;9.234;2022-08-19T06:56:45;97182.91;;;20.56;100.00
21980;BME280;11154;48.558;9.234;2022-08-19T06:58:47;97180.00;;;20.58;100.00
21980;BME280;11154;48.558;9.234;2022-08-19T07:00:51;97181.88;;;20.57;100.00
21980;BME280;11154;48.558;9.234;2022-08-19T07:02:52;97172.47;;;20.60;100.00
21980;BME280;11154;48.558;9.234;2022-08-19T07:04:54;97179.53;;;20.61;100.00
21980;BME280;11154;48.558;9.234;2022-08-19T07:06:59;97178.97;;;20.59;100.00
21980;BME280;11154;48.558;9.234;2022-08-19T07:09:03;97176.81;;;20.61;100.00
21980;BME280;11154;48.558;9.234;2022-08-19T07:11:05;97176.47;;;20.57;100.00
21980;BME280;11154;48.558;9.234;2022-08-19T07:13:08;97182.09;;;20.56;100.00
21980;BME280;11154;48.558;9.234;2022-08-19T07:15:11;97179.41;;;20.56;100.00
21980;BME280;11154;48.558;9.234;2022-08-19T07:17:13;97178.34;;;20.57;100.00
21980;BME280;11154;48.558;9.234;2022-08-19T07:19:16;97178.97;;;20.59;100.00
21980;BME280;11154;48.558;9.234;2022-08-19T07:21:20;97188.69;;;20.60;100.00
21980;BME280;11154;48.558;9.234;2022-08-19T07:23:22;97187.06;;;20.59;100.00
21980;BME280;11154;48.558;9.234;2022-08-19T07:25:25;97191.19;;;20.61;100.00
21980;BME280;11154;48.558;9.234;2022-08-19T07:27:27;97190.34;;;20.61;100.00
21980;BME280;11154;48.558;9.234;2022-08-19T07:29:30;97181.66;;;20.59;100.00
21980;BME280;11154;48.558;9.234;2022-08-19T07:31:33;97191.38;;;20.60;100.00
21980;BME280;11154;48.558;9.234;2022-08-19T07:33:37;97185.84;;;20.55;100.00
21980;BME280;11154;48.558;9.234;2022-08-19T07:35:39;97181.19;;;20.62;100.00
21980;BME280;11154;48.558;9.234;2022-08-19T07:37:41;97189.97;;;20.57;100.00
21980;BME280;11154;48.558;9.234;2022-08-19T07:39:44;97192.91;;;20.56;100.00
21980;BME280;11154;48.558;9.234;2022-08-19T07:41:47;97189.75;;;20.59;100.00
21980;BME280;11154;48.558;9.234;2022-08-19T07:43:51;97193.28;;;20.59;100.00
21980;BME280;11154;48.558;9.234;2022-08-19T07:45:54;97192.91;;;20.56;100.00
21980;BME280;11154;48.558;9.234;2022-08-19T07:47:56;97189.16;;;20.57;100.00
21980;BME280;11154;48.558;9.234;2022-08-19T07:49:59;97190.81;;;20.58;100.00
21980;BME280;11154;48.558;9.234;2022-08-19T07:52:03;97196.22;;;20.58;100.00
21980;BME280;11154;48.558;9.234;2022-08-19T07:54:05;97192.09;;;20.55;100.00
21980;BME280;11154;48.558;9.234;2022-08-19T07:56:07;97193.72;;;20.56;100.00
21980;BME280;11154;48.558;9.234;2022-08-19T07:58:12;97202.91;;;20.55;100.00
21980;BME280;11154;48.558;9.234;2022-08-19T08:00:15;97200.41;;;20.54;100.00
21980;BME280;11154;48.558;9.234;2022-08-19T08:02:17;97202.91;;;20.55;100.00
21980;BME280;11154;48.558;9.234;2022-08-19T08:04:19;97197.88;;;20.59;100.00
21980;BME280;11154;48.558;9.234;2022-08-19T08:06:38;97201.38;;;20.59;100.00
21980;BME280;11154;48.558;9.234;2022-08-19T08:08:57;97204.69;;;20.61;100.00
21980;BME280;11154;48.558;9.234;2022-08-19T08:11:21;97204.00;;;20.66;100.00
21980;BME280;11154;48.558;9.234;2022-08-19T08:13:24;97206.81;;;20.71;100.00
21980;BME280;11154;48.558;9.234;2022-08-19T08:15:26;97206.81;;;20.71;100.00
21980;BME280;11154;48.558;9.234;2022-08-19T08:17:29;97215.75;;;20.71;100.00
21980;BME280;11154;48.558;9.234;2022-08-19T08:19:32;97212.69;;;20.68;100.00
21980;BME280;11154;48.558;9.234;2022-08-19T08:21:34;97212.56;;;20.63;100.00
21980;BME280;11154;48.558;9.234;2022-08-19T08:23:36;97209.41;;;20.66;100.00
21980;BME280;11154;48.558;9.234;2022-08-19T08:25:36;97212.09;;;20.66;100.00
21980;BME280;11154;48.558;9.234;2022-08-19T08:27:40;97210.94;;;20.73;100.00
21980;BME280;11154;48.558;9.234;2022-08-19T08:29:43;97212.69;;;20.68;100.00
21980;BME280;11154;48.558;9.234;2022-08-19T08:31:46;97206.53;;;20.61;100.00
21980;BME280;11154;48.558;9.234;2022-08-19T08:33:48;97208.06;;;20.57;100.00
21980;BME280;11154;48.558;9.234;2022-08-19T08:35:49;97206.44;;;20.56;100.00
21980;BME280;11154;48.558;9.234;2022-08-19T08:37:54;97209.94;;;20.56;100.00
21980;BME280;11154;48.558;9.234;2022-08-19T08:39:56;97206.06;;;20.52;100.00
21980;BME280;11154;48.558;9.234;2022-08-19T08:42:05;97205.94;;;20.47;100.00
21980;BME280;11154;48.558;9.234;2022-08-19T08:44:21;97198.88;;;20.46;100.00
21980;BME280;11154;48.558;9.234;2022-08-19T08:46:30;97205.22;;;20.40;100.00
21980;BME280;11154;48.558;9.234;2022-08-19T08:48:46;97203.19;;;20.36;100.00
21980;BME280;11154;48.558;9.234;2022-08-19T08:50:51;97218.84;;;20.45;100.00
21980;BME280;11154;48.558;9.234;2022-08-19T08:52:57;97207.47;;;20.43;100.00
21980;BME280;11154;48.558;9.234;2022-08-19T08:55:03;97210.16;;;20.43;100.00
21980;BME280;11154;48.558;9.234;2022-08-19T08:57:11;97220.97;;;20.43;100.00
21980;BME280;11154;48.558;9.234;2022-08-19T08:59:19;97220.06;;;20.49;100.00
21980;BME280;11154;48.558;9.234;2022-08-19T09:01:22;97217.56;;;20.48;100.00
21980;BME280;11154;48.558;9.234;2022-08-19T09:03:27;97222.97;;;20.48;100.00
21980;BME280;11154;48.558;9.234;2022-08-19T09:05:36;97221.91;;;20.49;100.00
21980;BME280;11154;48.558;9.234;2022-08-19T09:07:46;97220.72;;;20.45;100.00
21980;BME280;11154;48.558;9.234;2022-08-19T09:09:52;97225.66;;;20.48;100.00
21980;BME280;11154;48.558;9.234;2022-08-19T09:12:04;97226.72;;;20.47;100.00
21980;BME280;11154;48.558;9.234;2022-08-19T09:14:15;97226.38;;;20.43;100.00
21980;BME280;11154;48.558;9.234;2022-08-19T09:16:21;97232.59;;;20.44;100.00
21980;BME280;11154;48.558;9.234;2022-08-19T09:18:38;97234.69;;;20.42;100.00
21980;BME280;11154;48.558;9.234;2022-08-19T09:20:40;97232.66;;;20.37;100.00
21980;BME280;11154;48.558;9.234;2022-08-19T09:22:42;97226.81;;;20.40;100.00
21980;BME280;11154;48.558;9.234;2022-08-19T09:24:44;97233.41;;;20.44;100.00
21980;BME280;11154;48.558;9.234;2022-08-19T09:26:46;97235.91;;;20.46;100.00
21980;BME280;11154;48.558;9.234;2022-08-19T09:28:49;97233.19;;;20.46;100.00
21980;BME280;11154;48.558;9.234;2022-08-19T09:30:52;97234.81;;;20.47;100.00
21980;BME280;11154;48.558;9.234;2022-08-19T09:32:55;97238.47;;;20.52;100.00
21980;BME280;11154;48.558;9.234;2022-08-19T09:34:58;97237.50;;;20.47;100.00
21980;BME280;11154;48.558;9.234;2022-08-19T09:37:00;97242.78;;;20.42;100.00
21980;BME280;11154;48.558;9.234;2022-08-19T09:39:03;97242.22;;;20.40;100.00
21980;BME280;11154;48.558;9.234;2022-08-19T09:41:06;97247.16;;;20.43;100.00
21980;BME280;11154;48.558;9.234;2022-08-19T09:43:08;97246.09;;;20.44;100.00
21980;BME280;11154;48.558;9.234;2022-08-19T09:45:10;97246.47;;;20.47;100.00
21980;BME280;11154;48.558;9.234;2022-08-19T09:47:13;97252.91;;;20.46;100.00
21980;BME280;11154;48.558;9.234;2022-08-19T09:49:16;97247.44;;;20.53;100.00
21980;BME280;11154;48.558;9.234;2022-08-19T09:51:21;97249.66;;;20.56;100.00
21980;BME280;11154;48.558;9.234;2022-08-19T09:53:23;97243.44;;;20.55;100.00
21980;BME280;11154;48.558;9.234;2022-08-19T09:55:25;97243.34;;;20.62;100.00
21980;BME280;11154;48.558;9.234;2022-08-19T09:57:27;97247.00;;;20.67;100.00
21980;BME280;11154;48.558;9.234;2022-08-19T09:59:29;97242.41;;;20.68;100.00
21980;BME280;11154;48.558;9.234;2022-08-19T10:01:31;97248.84;;;20.67;100.00
21980;BME280;11154;48.558;9.234;2022-08-19T10:03:35;97250.84;;;20.60;100.00
21980;BME280;11154;48.558;9.234;2022-08-19T10:05:37;97250.63;;;20.61;100.00
21980;BME280;11154;48.558;9.234;2022-08-19T10:07:51;97248.38;;;20.58;100.00
21980;BME280;11154;48.558;9.234;2022-08-19T10:09:52;97243.56;;;20.60;100.00
21980;BME280;11154;48.558;9.234;2022-08-19T10:11:54;97253.09;;;20.63;100.00
21980;BME280;11154;48.558;9.234;2022-08-19T10:13:58;97250.38;;;20.63;100.00
21980;BME280;11154;48.558;9.234;2022-08-19T10:16:04;97248.28;;;20.65;100.00
21980;BME280;11154;48.558;9.234;2022-08-19T10:18:07;97259.47;;;20.68;100.00
21980;BME280;11154;48.558;9.234;2022-08-19T10:20:09;97255.47;;;20.71;100.00
21980;BME280;11154;48.558;9.234;2022-08-19T10:22:11;97251.88;;;20.77;100.00
21980;BME280;11154;48.558;9.234;2022-08-19T10:24:16;97253.28;;;20.79;100.00
21980;BME280;11154;48.558;9.234;2022-08-19T10:26:20;97255.16;;;20.79;100.00
21980;BME280;11154;48.558;9.234;2022-08-19T10:28:22;97257.03;;;20.78;100.00
21980;BME280;11154;48.558;9.234;2022-08-19T10:30:24;97255.63;;;20.76;100.00
21980;BME280;11154;48.558;9.234;2022-08-19T10:32:26;97253.53;;;20.78;100.00
21980;BME280;11154;48.558;9.234;2022-08-19T10:34:30;97260.41;;;20.74;100.00
21980;BME280;11154;48.558;9.234;2022-08-19T10:36:37;97256.81;;;20.80;100.00
21980;BME280;11154;48.558;9.234;2022-08-19T10:38:39;97257.03;;;20.78;100.00
21980;BME280;11154;48.558;9.234;2022-08-19T10:40:42;97252.94;;;20.76;100.00
21980;BME280;11154;48.558;9.234;2022-08-19T10:42:43;97254.41;;;20.72;100.00
21980;BME280;11154;48.558;9.234;2022-08-19T10:44:45;97256.97;;;20.67;100.00
21980;BME280;11154;48.558;9.234;2022-08-19T10:46:48;97255.34;;;20.66;100.00